Sami Al-Shehri

Ojeador - Al-Shabab
16 Abr 2028
Domingo
Continuar

Personalidad

Adaptabilidad (6) Ambición (10) Controversia (10) Lealtad (16) Presión (6) Profesionalismo (13) Deportividad (8) Temperamento (2)

Perfil

Estilo de dirección Democrático
Licencia Continental Pro
Determinación 11
Gestión de personas 9
Motivación 8
Disciplina 4
Satisfacción laboral
100%
Fatiga
0%
Cargo Ojeador
Salario 69.5K p/s
Contrato 14.03.2030

Rendimiento

Comportamiento Bueno
Efectividad del entrenamiento
38%
Desarrollo de jugadores
40%
Prevención de lesiones
25%
Implementación táctica
30%

Eventos recientes

Asistió a una reunión de captación 7d atrás
Recomendó un objetivo de fichaje 7d atrás
Asistió a una reunión de captación 14d atrás
Recomendó un objetivo de fichaje 14d atrás
Asistió a una reunión de captación 21d atrás
Recomendó un objetivo de fichaje 21d atrás
Asistió a una reunión de captación 28d atrás
Recomendó un objetivo de fichaje 28d atrás

Actualmente siguiendo

75
Jugador Club Estado Habilidad Confianza Observado Última observación Último voto
Andrey Ivlev Nizhniy Novgorod Activo 120 / 123 40% 4 08.03.2028 -
Bernardo Lima Porto Activo 103 / 125 40% 2 08.03.2028 -
Nicolas Sport Recife Activo 112 / 120 40% 1 08.03.2028 -
Sanousi Al-Hawsawi Damac Perdido 110 / 117 76% 1 24.01.2028 Aprobar
Khalid Al-Ghannam Al-Ettifaq Perdido 128 / 131 76% 1 17.01.2028 Aprobar
Mohau Nkota Al-Ettifaq Activo 129 / 132 30% 1 / 1m 12.01.2028 -
João Costa Al-Ettifaq Perdido 120 / 116 76% 1 10.01.2028 Aprobar
Jamie Wähling Hibernians Activo 79 / 101 40% 2 31.12.2027 -
Matias Siltanen Malmo FF Activo 128 / 127 40% 3 30.12.2027 -
Maxim Radchenko Rostov Activo 92 / 82 40% 3 30.12.2027 -
Kai Andrews Coventry City Activo 117 / 133 40% 2 30.12.2027 -
Björn Hedlöf Helsingborg Activo 93 / 108 40% 4 27.12.2027 -
Matvey Bardachev Zenit Activo 105 / 110 40% 3 27.12.2027 -
Victor Hernandez Santa Fe Activo 116 / 126 40% 12 26.12.2027 -
Agustín De la Cuesta Racing Activo 113 / 128 40% 5 26.12.2027 -
Tiago Freitas Benfica Activo 125 / 117 40% 4 25.12.2027 -
Tiago Gordillo San Miguel Activo 83 / 87 40% 8 25.12.2027 -
Diego Vargas Universidad de Concepcion Activo 90 / 93 40% 2 25.12.2027 -
Ivan Giraldo Valencia Activo 134 / 137 40% 8 24.12.2027 -
Joel Ezra Enyimba Activo 97 / 83 40% 2 24.12.2027 -
Kieran Morgan Queens Park Rangers Activo 125 / 131 40% 6 19.12.2027 -
Ianis Marin Pandurii Activo 90 / 103 40% 1 19.12.2027 -
Konta Ismaily Activo 89 / 98 40% 1 17.12.2027 -
Juan Manuel Villalba Tigre Activo 117 / 130 40% 5 14.12.2027 -
Ivan Borges Defensores Activo 83 / 88 40% 3 13.12.2027 -
Jorge Moreno Athletic Bilbao Activo 120 / 125 40% 2 13.12.2027 -
Salvador Blopá Sporting CP Activo 122 / 116 40% 7 09.12.2027 -
Ronan Kpakio AC Milan Activo 116 / 138 40% 3 06.12.2027 -
Nathan De Cat SC Freiburg Activo 127 / 134 40% 5 06.12.2027 -
Itumeleng Jali Spezia Activo 118 / 122 40% 1 05.12.2027 -
Martim Cunha Porto Activo 102 / 121 40% 4 03.12.2027 -
Omar Kamel Vasco da Gama Activo 85 / 101 40% 2 03.12.2027 -
Gonçalo Oliveira Benfica Activo 113 / 118 40% 4 02.12.2027 -
Momodou Jatta Al Jazira Activo 102 / 113 40% 6 02.12.2027 -
Jorthy Mokio ADO Den Haag Activo 126 / 129 40% 1 30.11.2027 -
Zane Albarus Shrewsbury Town Activo 99 / 91 40% 1 30.11.2027 -
Ezra Mayers West Ham United Activo 126 / 139 40% 1 24.11.2027 Más información
Eduardo Felicíssimo Sporting CP Activo 117 / 144 40% 2 21.11.2027 -
Ulises Giménez River Plate Activo 112 / 105 40% 3 17.11.2027 -
Toni Tamarit Alverca Activo 127 / 123 40% 2 15.11.2027 -
Onuorah Onyedika Kun Khalifat Activo 74 / 85 40% 1 15.11.2027 -
Fabián Arrúa Al-Ettifaq Activo 90 / 93 30% 1 / 1m 10.11.2027 -
Ahmed Abdin Wisla Krakow Activo 104 / 95 40% 1 05.11.2027 -
Máximo Munarriz San Telmo Activo 90 / 97 40% 4 04.11.2027 -
Mirza Ćatović VfB Stuttgart Activo 128 / 125 40% 2 03.11.2027 -
Sabil Hansen Randers Activo 105 / 106 40% 3 29.10.2027 -
Tobias Moi Lillestrom Activo 114 / 119 40% 1 27.10.2027 -
Vinícius Lira São Paulo Activo 118 / 124 40% 4 26.10.2027 -
Mateo Caballero Defensor Sporting Activo 103 / 114 40% 1 23.10.2027 -
Matías Canedo Rampla Juniors Activo 81 / 91 40% 1 19.10.2027 -
Baron Ochieng Zamalek Activo 103 / 119 40% 1 13.10.2027 -
Agustín Campos All Boys Activo 95 / 88 40% 1 10.10.2027 -
Sebastián Flores Ferro Carril Oeste Activo 107 / 116 40% 2 09.10.2027 -
Sebastián Caballero Barranquilla Activo 97 / 107 40% 1 08.10.2027 -
Germán Barbas Burgos Activo 114 / 105 40% 3 04.10.2027 -
Reggie Walsh Chelsea Activo 115 / 143 40% 1 04.10.2027 -
Axel Leiva Independiente Rivadavia Activo 86 / 87 40% 1 20.09.2027 -
Celías Ingenthron Platense Activo 112 / 133 40% 1 20.09.2027 -
Sultan Hassan Al Wahda Activo 83 / 88 40% 1 20.09.2027 -
Hussain Al-Zarie Al-Saudi Al-Watani Activo 108 / 111 30% 1 / 1m 15.09.2027 -
Abdullah Abdo Al-Saudi Al-Watani Activo 94 / 94 30% 1 / 1m 15.09.2027 -
Aboubacar Doumbia Al-Orobah Activo 111 / 111 30% 1 / 1m 15.09.2027 -
Joaquín Soto Union La Calera Activo 94 / 101 40% 1 11.09.2027 -
Abdulrahman Hindi Al-Taawoun Activo 100 / 94 76% 1 23.08.2027 Aprobar
Colin Guske Orlando City Activo 88 / 101 40% 1 16.08.2027 -
Jorge Pérez Real Santander Activo 91 / 101 40% 1 16.08.2027 -
Ronnie Harvey Colchester United Activo 80 / 111 40% 1 10.07.2027 -
Riley Owen Stevenage Activo 95 / 126 40% 2 29.05.2027 -
Pietro Reggiori Pro Patria Activo 94 / 93 40% 3 29.05.2027 -
Francis Gomez Cardiff City Activo 109 / 123 40% 2 28.05.2027 -
Kiani Inge Groningen Activo 107 / 119 40% 1 28.05.2027 -
Samuele di Benedetto Twente Activo 104 / 117 40% 2 25.05.2027 -
Sascha Britschgi AC Milan Activo 123 / 121 40% 1 16.05.2027 -
Simone Kosijer Triestina Activo 102 / 99 40% 1 16.05.2027 -
Lucas Mbamba Westerlo Activo 82 / 86 40% 1 14.05.2027 -